Time;durP1;ratioP1;P1;durP2;ratioP2;P2;SDS_P1;SDS_P2;PMS_P1;PMS_P2;Temp;Humidity;BMP_temperature;BMP_pressure;BME280_temperature;BME280_humidity;BME280_pressure;Samples;Min_cycle;Max_cycle;Signal;HPM_P1;HPM_P2
2023/03/31 00:00:35;;;;;;;1.00;0.73;;;10.50;99.90;10.50;99673.00;;;;4918264;28;120316;-63
2023/03/31 00:03:01;;;;;;;6.27;0.97;;;10.50;99.90;10.50;99677.00;;;;4925852;28;110883;-62
2023/03/31 00:05:27;;;;;;;1.30;0.63;;;10.60;99.90;10.60;99671.00;;;;4917999;28;92304;-62
2023/03/31 00:07:59;;;;;;;0.80;0.63;;;10.60;99.90;10.60;99678.00;;;;4920188;28;101299;-62
2023/03/31 00:10:33;;;;;;;2.73;0.97;;;10.60;99.90;10.60;99671.00;;;;4922305;28;93004;-61
2023/03/31 00:13:00;;;;;;;0.20;0.20;;;10.60;99.90;10.70;99673.00;;;;4924555;28;94010;-62
2023/03/31 00:15:26;;;;;;;1.33;0.83;;;10.70;99.90;10.70;99673.00;;;;4935608;28;101900;-63
2023/03/31 00:17:52;;;;;;;0.60;0.47;;;10.70;99.90;10.70;99668.00;;;;4931119;28;115934;-63
2023/03/31 00:20:18;;;;;;;5.67;0.70;;;10.70;99.90;10.70;99666.00;;;;4937136;28;122429;-63
2023/03/31 00:22:47;;;;;;;0.47;0.47;;;10.70;99.90;10.80;99655.00;;;;4946888;28;94456;-63
2023/03/31 00:25:15;;;;;;;0.67;0.30;;;10.80;99.90;10.80;99661.00;;;;4935892;28;93059;-64
2023/03/31 00:27:45;;;;;;;1.47;0.77;;;10.80;99.90;10.80;99662.00;;;;4933239;28;95440;-63
2023/03/31 00:30:14;;;;;;;0.47;0.47;;;10.90;99.90;10.90;99661.00;;;;4935384;28;95216;-62
2023/03/31 00:32:40;;;;;;;1.73;0.77;;;10.90;99.90;10.90;99665.00;;;;4933923;28;92698;-62
2023/03/31 00:35:07;;;;;;;2.03;0.63;;;10.90;99.90;10.90;99659.00;;;;4935947;28;92884;-63
2023/03/31 00:37:33;;;;;;;2.63;0.83;;;11.00;99.90;11.00;99660.00;;;;4936228;28;95406;-63
2023/03/31 00:39:59;;;;;;;0.87;0.50;;;11.00;99.90;11.00;99660.00;;;;4946841;28;94567;-63
2023/03/31 00:42:26;;;;;;;3.30;0.90;;;11.00;99.90;11.00;99653.00;;;;4942646;28;109598;-63
2023/03/31 00:45:13;;;;;;;6.57;0.97;;;11.00;99.90;11.00;99653.00;;;;4937832;28;101335;-62
2023/03/31 00:47:41;;;;;;;0.90;0.60;;;11.10;99.90;11.10;99656.00;;;;4935579;28;101391;-62
2023/03/31 00:50:17;;;;;;;0.80;0.70;;;11.10;99.90;11.10;99647.00;;;;4917481;28;93108;-62
2023/03/31 00:52:46;;;;;;;0.40;0.40;;;11.10;99.90;11.10;99640.00;;;;4934053;28;92891;-63
2023/03/31 00:55:19;;;;;;;3.20;1.00;;;11.20;99.90;11.10;99641.00;;;;4931229;28;92184;-63
2023/03/31 00:57:46;;;;;;;1.90;0.70;;;11.20;99.90;11.10;99632.00;;;;4939083;28;93306;-63
2023/03/31 01:00:17;;;;;;;0.73;0.67;;;11.20;99.90;11.10;99636.00;;;;4961811;28;92947;-63
2023/03/31 01:02:51;;;;;;;1.10;0.73;;;11.20;99.90;11.10;99632.00;;;;4935533;28;93800;-61
2023/03/31 01:05:29;;;;;;;0.50;0.50;;;11.20;99.90;11.10;99626.00;;;;4940736;28;92892;-62
2023/03/31 01:07:56;;;;;;;1.80;0.50;;;11.20;99.90;11.20;99629.00;;;;4931304;28;92726;-62
2023/03/31 01:10:22;;;;;;;0.57;0.57;;;11.20;99.90;11.20;99623.00;;;;4918417;28;109058;-63
2023/03/31 01:12:53;;;;;;;1.57;0.57;;;11.20;99.90;11.10;99617.00;;;;4937142;28;92735;-62
2023/03/31 01:15:18;;;;;;;2.00;0.67;;;11.20;99.90;11.20;99622.00;;;;4934940;28;92992;-62
2023/03/31 01:17:46;;;;;;;0.40;0.40;;;11.20;99.90;11.20;99600.00;;;;4938638;28;113660;-62
2023/03/31 01:20:44;;;;;;;0.60;0.50;;;11.20;99.90;11.20;99603.00;;;;4939746;28;93455;-63
2023/03/31 01:23:31;;;;;;;1.67;0.80;;;11.20;99.90;11.20;99598.00;;;;4935873;28;93044;-65
2023/03/31 01:26:32;;;;;;;1.13;0.70;;;11.20;99.90;11.20;99600.00;;;;4919872;28;93004;-63
2023/03/31 01:29:26;;;;;;;7.10;0.50;;;11.20;99.90;11.20;99594.00;;;;4950846;28;95251;-63
2023/03/31 01:32:04;;;;;;;2.37;0.73;;;11.20;99.90;11.20;99588.00;;;;4938840;28;93838;-62
2023/03/31 01:35:25;;;;;;;0.70;0.70;;;11.20;99.90;11.20;99584.00;;;;4936495;28;92926;-62
2023/03/31 01:38:17;;;;;;;1.03;0.80;;;11.20;99.90;11.20;99578.00;;;;4960912;28;92886;-63
2023/03/31 01:41:21;;;;;;;2.00;0.80;;;11.20;99.90;11.20;99574.00;;;;4933360;28;93579;-62
2023/03/31 01:44:18;;;;;;;1.67;0.70;;;11.30;99.90;11.20;99575.00;;;;4934139;28;93492;-63
2023/03/31 01:47:01;;;;;;;0.57;0.50;;;11.30;99.90;11.20;99580.00;;;;4936225;28;92716;-63
2023/03/31 01:50:02;;;;;;;1.03;0.40;;;11.20;99.90;11.20;99569.00;;;;4917964;28;102490;-62
2023/03/31 01:52:44;;;;;;;0.40;0.40;;;11.20;99.90;11.20;99568.00;;;;4917477;28;94115;-62
2023/03/31 01:55:33;;;;;;;0.50;0.50;;;11.30;99.90;11.20;99562.00;;;;4915115;28;116174;-62
2023/03/31 01:58:11;;;;;;;2.10;0.70;;;11.20;99.90;11.20;99563.00;;;;4945418;28;94008;-63
2023/03/31 02:00:44;;;;;;;1.93;0.70;;;11.20;99.90;11.20;99562.00;;;;4918799;28;93187;-63
2023/03/31 02:03:33;;;;;;;2.60;0.53;;;11.80;99.90;11.20;99546.00;;;;4947733;28;117499;-63
2023/03/31 02:06:09;;;;;;;0.70;0.47;;;11.20;99.90;11.20;99547.00;;;;4945784;28;93983;-62
2023/03/31 02:08:44;;;;;;;4.63;0.90;;;11.20;99.90;11.20;99542.00;;;;4919587;28;93016;-63
2023/03/31 02:11:10;;;;;;;2.43;0.70;;;11.20;99.90;11.20;99540.00;;;;4935596;28;92953;-62
2023/03/31 02:13:40;;;;;;;1.70;0.63;;;11.20;99.90;11.20;99540.00;;;;4914922;28;97471;-62
2023/03/31 02:16:10;;;;;;;0.90;0.43;;;11.20;99.90;11.20;99538.00;;;;4925884;28;92722;-65
2023/03/31 02:18:40;;;;;;;1.73;0.63;;;11.30;99.90;11.20;99529.00;;;;4918785;28;93530;-63
2023/03/31 02:21:07;;;;;;;0.67;0.37;;;11.20;99.90;11.20;99535.00;;;;4935803;28;93161;-63
2023/03/31 02:23:36;;;;;;;1.17;0.80;;;11.20;99.90;11.10;99533.00;;;;4920109;28;95018;-63
2023/03/31 02:26:10;;;;;;;1.90;0.77;;;11.20;99.90;11.10;99525.00;;;;4915733;28;94220;-63
2023/03/31 02:28:37;;;;;;;2.00;0.77;;;11.20;99.90;11.10;99514.00;;;;4946643;28;101664;-63
2023/03/31 02:31:34;;;;;;;0.63;0.53;;;11.10;99.90;11.00;99515.00;;;;4936596;28;92935;-64
2023/03/31 02:34:00;;;;;;;2.20;0.93;;;11.10;99.90;10.90;99505.00;;;;4924581;28;94288;-64
2023/03/31 02:36:26;;;;;;;1.30;0.40;;;11.00;99.90;10.90;99503.00;;;;4934070;28;93174;-63
2023/03/31 02:39:02;;;;;;;0.60;0.60;;;11.00;99.90;10.80;99499.00;;;;4932758;28;110699;-62
2023/03/31 02:41:28;;;;;;;0.80;0.70;;;10.90;99.90;10.70;99498.00;;;;4948094;28;92912;-62
2023/03/31 02:43:54;;;;;;;1.03;0.50;;;10.80;99.90;10.70;99500.00;;;;4933829;28;121799;-62
2023/03/31 02:46:20;;;;;;;1.50;0.80;;;10.70;99.90;10.60;99492.00;;;;4933715;28;121972;-62
2023/03/31 02:48:51;;;;;;;0.67;0.60;;;10.70;99.90;10.50;99483.00;;;;4947810;28;110850;-62
2023/03/31 02:52:03;;;;;;;1.10;0.70;;;10.60;99.90;10.40;99488.00;;;;4933856;28;98652;-63
2023/03/31 02:55:02;;;;;;;0.70;0.70;;;10.50;99.90;10.20;99476.00;;;;4931821;28;92966;-63
2023/03/31 02:57:48;;;;;;;0.30;0.27;;;10.40;99.90;10.20;99479.00;;;;4930626;28;115653;-62
2023/03/31 03:00:44;;;;;;;5.27;0.90;;;10.30;99.90;10.10;99483.00;;;;4935923;28;93459;-63
2023/03/31 03:03:51;;;;;;;1.63;0.70;;;10.20;99.90;10.00;99468.00;;;;4932318;28;93171;-62
2023/03/31 03:06:53;;;;;;;0.50;0.50;;;10.20;99.90;10.00;99472.00;;;;4932699;28;93707;-62
2023/03/31 03:09:31;;;;;;;1.17;0.70;;;10.10;99.90;10.00;99459.00;;;;4933820;28;93364;-62
2023/03/31 03:12:50;;;;;;;1.53;0.87;;;10.10;99.90;10.00;99469.00;;;;4947563;28;102396;-63
2023/03/31 03:15:29;;;;;;;1.47;0.73;;;10.10;99.90;10.00;99469.00;;;;4933843;28;92838;-61
2023/03/31 03:17:55;;;;;;;3.73;1.00;;;10.10;99.90;10.00;99471.00;;;;4933218;28;94764;-61
2023/03/31 03:20:21;;;;;;;2.03;0.57;;;10.10;99.90;10.10;99471.00;;;;4911081;28;94586;-62
2023/03/31 03:22:47;;;;;;;5.67;0.87;;;10.10;99.90;10.10;99464.00;;;;4932511;28;109750;-63
2023/03/31 03:25:19;;;;;;;1.43;0.50;;;10.10;99.90;10.10;99468.00;;;;4930743;28;108235;-63
2023/03/31 03:27:45;;;;;;;1.87;0.90;;;10.20;99.90;10.10;99462.00;;;;4934272;28;93047;-62
2023/03/31 03:30:12;;;;;;;0.50;0.50;;;10.20;99.90;10.20;99456.00;;;;4944414;28;93431;-62
2023/03/31 03:32:40;;;;;;;2.43;0.93;;;10.20;99.90;10.20;99445.00;;;;4932892;28;102458;-64
2023/03/31 03:35:06;;;;;;;0.60;0.60;;;10.20;99.90;10.20;99458.00;;;;4930150;28;92354;-62
2023/03/31 03:37:32;;;;;;;0.97;0.77;;;10.30;99.90;10.30;99446.00;;;;4935404;28;93102;-63
2023/03/31 03:39:58;;;;;;;3.93;0.60;;;10.30;99.90;10.30;99449.00;;;;4931179;28;122162;-64
2023/03/31 03:42:24;;;;;;;4.80;0.77;;;10.30;99.90;10.30;99444.00;;;;4932686;28;94473;-62
2023/03/31 03:44:49;;;;;;;2.00;0.63;;;10.30;99.90;10.30;99442.00;;;;4936224;28;92797;-62
2023/03/31 03:47:15;;;;;;;1.90;0.60;;;10.30;99.90;10.30;99440.00;;;;4929599;28;122941;-60
2023/03/31 03:49:41;;;;;;;0.80;0.50;;;10.30;99.90;10.30;99445.00;;;;4943704;28;114851;-62
2023/03/31 03:52:07;;;;;;;4.43;1.23;;;10.80;99.90;10.30;99430.00;;;;4934832;28;96268;-63
2023/03/31 03:54:32;;;;;;;3.47;0.70;;;10.40;99.90;10.30;99429.00;;;;4932663;28;94309;-63
2023/03/31 03:56:58;;;;;;;2.03;0.90;;;10.40;99.90;10.30;99434.00;;;;4929119;28;122988;-62
2023/03/31 03:59:24;;;;;;;1.93;0.70;;;10.30;99.90;10.20;99430.00;;;;4935376;28;121423;-62
2023/03/31 04:01:50;;;;;;;1.07;0.70;;;10.30;99.90;10.20;99428.00;;;;4931297;28;110935;-62
2023/03/31 04:04:16;;;;;;;1.47;0.93;;;10.30;99.90;10.20;99418.00;;;;4934124;28;92998;-62
2023/03/31 04:06:41;;;;;;;2.00;0.90;;;10.30;99.90;10.20;99420.00;;;;4939139;28;101697;-62
2023/03/31 04:09:07;;;;;;;1.07;0.80;;;10.30;99.90;10.30;99408.00;;;;4933666;28;123790;-63
2023/03/31 04:11:34;;;;;;;7.33;0.87;;;10.30;99.90;10.30;99408.00;;;;4935478;28;110149;-63
2023/03/31 04:14:00;;;;;;;1.57;0.70;;;10.30;99.90;10.30;99412.00;;;;4934739;28;92942;-64
2023/03/31 04:16:25;;;;;;;0.53;0.53;;;10.30;99.90;10.30;99397.00;;;;4934953;28;105231;-61
2023/03/31 04:18:55;;;;;;;1.03;0.40;;;10.30;99.90;10.30;99398.00;;;;4932889;28;122226;-64
2023/03/31 04:21:24;;;;;;;3.43;0.77;;;10.30;99.90;10.30;99398.00;;;;4937195;28;92985;-63
2023/03/31 04:24:00;;;;;;;1.37;0.80;;;10.40;99.90;10.30;99395.00;;;;4937012;28;108849;-63
2023/03/31 04:26:41;;;;;;;1.90;1.10;;;10.40;99.90;10.40;99390.00;;;;4947740;28;93918;-61
2023/03/31 04:29:14;;;;;;;0.90;0.80;;;10.40;99.90;10.40;99383.00;;;;4938561;28;93722;-63
2023/03/31 04:31:41;;;;;;;1.77;0.80;;;10.40;99.90;10.40;99391.00;;;;4933042;28;94283;-63
2023/03/31 04:34:12;;;;;;;0.90;0.70;;;10.40;99.90;10.50;99389.00;;;;4934762;28;92906;-62
2023/03/31 04:36:41;;;;;;;0.60;0.60;;;10.50;99.90;10.50;99389.00;;;;4934153;28;93881;-63
2023/03/31 04:39:11;;;;;;;0.87;0.87;;;10.50;99.90;10.50;99382.00;;;;4932349;28;94135;-62
2023/03/31 04:41:36;;;;;;;2.60;0.70;;;10.60;99.90;10.60;99379.00;;;;4933980;28;93068;-62
2023/03/31 04:44:02;;;;;;;1.13;0.80;;;10.60;99.90;10.60;99375.00;;;;4933738;28;94395;-62
2023/03/31 04:46:28;;;;;;;0.93;0.80;;;10.60;99.90;10.60;99368.00;;;;4938839;28;93554;-62
2023/03/31 04:48:53;;;;;;;0.80;0.63;;;10.70;99.90;10.60;99372.00;;;;4933789;28;123782;-63
2023/03/31 04:51:19;;;;;;;0.90;0.87;;;10.70;99.90;10.70;99368.00;;;;4933522;28;110204;-63
2023/03/31 04:53:45;;;;;;;2.73;0.60;;;10.70;99.90;10.70;99365.00;;;;4933712;28;109557;-65
2023/03/31 04:56:11;;;;;;;1.23;0.63;;;10.70;99.90;10.70;99356.00;;;;4929275;28;94090;-63
2023/03/31 04:58:37;;;;;;;0.53;0.53;;;10.70;99.90;10.70;99366.00;;;;4931766;28;93133;-63
2023/03/31 05:01:07;;;;;;;1.73;0.97;;;10.70;99.90;10.70;99347.00;;;;4934015;28;92873;-64
2023/03/31 05:03:33;;;;;;;1.90;1.20;;;10.80;99.90;10.70;99338.00;;;;4944914;28;92677;-61
2023/03/31 05:05:59;;;;;;;1.17;0.70;;;10.80;99.90;10.80;99344.00;;;;4928746;28;93935;-62
2023/03/31 05:08:26;;;;;;;3.17;0.70;;;10.80;99.90;10.80;99345.00;;;;4931671;28;93925;-62
2023/03/31 05:10:52;;;;;;;1.50;0.57;;;10.80;99.90;10.90;99347.00;;;;4936114;28;92966;-62
2023/03/31 05:13:17;;;;;;;0.80;0.70;;;10.90;99.90;10.90;99326.00;;;;4935761;28;92621;-64
2023/03/31 05:15:49;;;;;;;1.80;0.87;;;10.90;99.90;11.00;99324.00;;;;4934146;28;123102;-63
2023/03/31 05:18:15;;;;;;;6.13;0.93;;;10.90;99.90;11.00;99319.00;;;;4932619;28;93610;-62
2023/03/31 05:20:41;;;;;;;1.90;0.60;;;11.00;99.90;11.00;99323.00;;;;4934166;28;103215;-63
2023/03/31 05:23:06;;;;;;;1.50;0.80;;;11.00;99.90;11.00;99311.00;;;;4948677;28;108133;-63
2023/03/31 05:25:32;;;;;;;1.60;0.77;;;11.00;99.90;11.10;99314.00;;;;4932751;28;122693;-63
2023/03/31 05:27:59;;;;;;;0.77;0.43;;;11.10;99.90;11.10;99300.00;;;;4928753;28;113631;-63
2023/03/31 05:30:26;;;;;;;4.00;0.93;;;11.10;99.90;11.10;99306.00;;;;4933699;28;92975;-63
2023/03/31 05:32:52;;;;;;;3.50;1.13;;;11.10;99.90;11.10;99300.00;;;;4937830;28;92956;-64
2023/03/31 05:35:18;;;;;;;0.57;0.57;;;11.10;99.90;11.10;99294.00;;;;4934141;28;95264;-64
2023/03/31 05:37:44;;;;;;;3.80;0.60;;;11.10;99.90;11.20;99290.00;;;;4932548;28;121798;-62
2023/03/31 05:40:10;;;;;;;1.20;0.50;;;11.20;99.90;11.20;99290.00;;;;4933726;28;110622;-62
2023/03/31 05:42:36;;;;;;;1.40;0.60;;;11.20;99.90;11.30;99289.00;;;;4944066;28;93089;-62
2023/03/31 05:45:03;;;;;;;2.07;1.20;;;11.20;99.90;11.30;99285.00;;;;4931243;28;111136;-63
2023/03/31 05:47:29;;;;;;;3.27;1.03;;;11.30;99.90;11.30;99284.00;;;;4935257;28;93719;-62
2023/03/31 05:49:55;;;;;;;0.93;0.80;;;11.30;99.90;11.30;99277.00;;;;4933672;28;92850;-63
2023/03/31 05:52:20;;;;;;;2.13;0.53;;;11.30;99.90;11.30;99270.00;;;;4931842;28;108157;-63
2023/03/31 05:54:46;;;;;;;0.97;0.70;;;11.30;99.90;11.30;99267.00;;;;4931728;28;123155;-63
2023/03/31 05:57:12;;;;;;;2.00;0.90;;;11.30;99.90;11.40;99267.00;;;;4934294;28;122973;-63
2023/03/31 05:59:39;;;;;;;0.70;0.63;;;11.40;99.90;11.40;99261.00;;;;4946340;28;110267;-63
2023/03/31 06:02:05;;;;;;;2.83;0.70;;;11.40;99.90;11.50;99253.00;;;;4932965;28;92161;-62
2023/03/31 06:04:31;;;;;;;1.37;1.20;;;11.40;99.90;11.50;99249.00;;;;4931579;28;123374;-63
2023/03/31 06:06:58;;;;;;;4.23;0.80;;;11.40;99.90;11.50;99245.00;;;;4935596;28;93701;-62
2023/03/31 06:09:25;;;;;;;2.40;0.80;;;11.50;99.90;11.60;99241.00;;;;4936842;28;93919;-63
2023/03/31 06:11:51;;;;;;;3.07;0.90;;;11.60;99.90;11.60;99237.00;;;;4936734;28;92943;-63
2023/03/31 06:14:16;;;;;;;0.77;0.57;;;11.60;99.90;11.70;99233.00;;;;4928437;28;123060;-64
2023/03/31 06:16:42;;;;;;;0.30;0.30;;;11.60;99.90;11.70;99237.00;;;;4938910;28;93168;-63
2023/03/31 06:19:08;;;;;;;1.13;0.57;;;11.70;99.90;11.80;99228.00;;;;4947026;28;109451;-62
2023/03/31 06:21:34;;;;;;;0.67;0.67;;;11.80;99.90;11.80;99216.00;;;;4935679;28;108970;-65
2023/03/31 06:24:00;;;;;;;0.50;0.50;;;11.80;99.90;11.90;99213.00;;;;4933802;28;94544;-64
2023/03/31 06:26:26;;;;;;;1.47;0.67;;;11.80;99.90;11.90;99215.00;;;;4931685;28;121734;-62
2023/03/31 06:28:52;;;;;;;0.83;0.70;;;11.90;99.90;12.00;99218.00;;;;4932074;28;92993;-63
2023/03/31 06:31:22;;;;;;;0.87;0.50;;;11.90;99.90;12.10;99216.00;;;;4935371;28;101781;-63
2023/03/31 06:33:47;;;;;;;0.70;0.70;;;12.00;99.90;12.10;99215.00;;;;4930821;28;118005;-63
2023/03/31 06:36:16;;;;;;;0.63;0.60;;;12.10;99.90;12.10;99212.00;;;;4930821;28;114355;-63
2023/03/31 06:38:42;;;;;;;0.83;0.83;;;12.10;99.90;12.20;99215.00;;;;4944071;28;100639;-63
2023/03/31 06:41:11;;;;;;;0.80;0.70;;;12.10;99.90;12.20;99218.00;;;;4934702;28;93150;-63
2023/03/31 06:43:37;;;;;;;2.27;0.93;;;12.20;99.90;12.20;99224.00;;;;4947480;28;105532;-63
2023/03/31 06:46:04;;;;;;;0.63;0.63;;;12.20;99.90;12.30;99226.00;;;;4930195;28;122418;-62
2023/03/31 06:48:30;;;;;;;0.73;0.67;;;12.30;99.90;12.30;99217.00;;;;4934535;28;93138;-63
2023/03/31 06:51:00;;;;;;;3.73;0.70;;;12.30;99.90;12.40;99214.00;;;;4936272;28;92191;-64
2023/03/31 06:53:26;;;;;;;0.70;0.47;;;12.40;99.90;12.50;99216.00;;;;4937086;28;93694;-63
2023/03/31 06:55:52;;;;;;;0.80;0.60;;;12.40;99.90;12.60;99217.00;;;;4945250;28;93186;-63
2023/03/31 06:58:18;;;;;;;0.27;0.27;;;12.50;99.90;12.70;99208.00;;;;4933029;28;94009;-64
2023/03/31 07:00:44;;;;;;;1.40;0.70;;;12.60;99.90;12.80;99199.00;;;;4933228;28;107140;-62
2023/03/31 07:03:11;;;;;;;0.30;0.30;;;12.70;99.90;12.90;99198.00;;;;4934190;28;93885;-64
2023/03/31 07:05:37;;;;;;;3.37;1.10;;;12.80;99.90;13.00;99196.00;;;;4933149;28;93251;-63
2023/03/31 07:08:03;;;;;;;2.30;0.70;;;12.90;99.90;13.10;99205.00;;;;4937905;28;92818;-64
2023/03/31 07:10:30;;;;;;;0.93;0.43;;;13.00;99.90;13.20;99206.00;;;;4930547;28;92898;-64
2023/03/31 07:12:57;;;;;;;0.40;0.40;;;13.10;99.90;13.30;99202.00;;;;4932342;28;94454;-64
2023/03/31 07:15:24;;;;;;;5.00;0.70;;;13.20;99.90;13.40;99200.00;;;;4943505;28;110293;-63
2023/03/31 07:17:49;;;;;;;1.03;0.30;;;13.30;99.90;13.40;99196.00;;;;4933666;28;93018;-65
2023/03/31 07:20:17;;;;;;;3.73;0.87;;;13.40;99.90;13.40;99189.00;;;;4929185;28;93099;-65
2023/03/31 07:22:45;;;;;;;0.50;0.40;;;13.40;99.90;13.50;99198.00;;;;4933195;28;95020;-63
2023/03/31 07:25:14;;;;;;;0.90;0.60;;;13.40;99.90;13.50;99193.00;;;;4934058;28;94599;-64
2023/03/31 07:27:39;;;;;;;2.30;0.63;;;13.50;99.90;13.60;99188.00;;;;4936571;28;93079;-65
2023/03/31 07:30:08;;;;;;;1.50;0.47;;;13.50;99.90;13.70;99191.00;;;;4932128;28;108018;-64
2023/03/31 07:32:38;;;;;;;3.70;0.87;;;13.60;99.90;13.80;99186.00;;;;4930966;28;94063;-63
2023/03/31 07:35:04;;;;;;;2.78;0.70;;;13.70;99.90;13.80;99193.00;;;;4942697;28;92987;-63
2023/03/31 07:37:38;;;;;;;1.30;0.90;;;13.80;99.90;13.70;99190.00;;;;4937214;28;93099;-64
2023/03/31 07:40:05;;;;;;;1.98;0.30;;;13.70;99.90;13.50;99181.00;;;;4934341;28;102933;-64
2023/03/31 07:42:32;;;;;;;0.45;0.30;;;13.60;99.90;13.40;99191.00;;;;4932815;28;94235;-64
2023/03/31 07:44:58;;;;;;;0.97;0.50;;;13.40;99.90;13.20;99184.00;;;;4928972;28;93350;-63
2023/03/31 07:47:24;;;;;;;0.65;0.60;;;13.30;99.90;13.10;99185.00;;;;4936485;28;104301;-64
2023/03/31 07:49:50;;;;;;;0.63;0.50;;;13.20;99.90;12.90;99169.00;;;;4933623;28;96432;-65
2023/03/31 07:52:18;;;;;;;0.80;0.50;;;13.00;99.90;12.90;99167.00;;;;4949259;28;122393;-64
2023/03/31 07:54:47;;;;;;;3.60;0.63;;;12.90;99.90;12.80;99159.00;;;;4934289;28;93026;-63
2023/03/31 07:57:16;;;;;;;2.00;0.77;;;12.90;99.90;12.80;99154.00;;;;4939413;28;110455;-63
2023/03/31 07:59:42;;;;;;;0.73;0.50;;;12.80;99.90;12.90;99163.00;;;;4938121;28;93294;-63
2023/03/31 08:02:17;;;;;;;1.90;0.57;;;12.90;99.90;13.00;99151.00;;;;4936796;28;114207;-64
2023/03/31 08:04:44;;;;;;;3.60;0.70;;;13.00;99.90;13.20;99150.00;;;;4936863;28;109151;-62
2023/03/31 08:07:12;;;;;;;0.83;0.77;;;13.10;99.90;13.40;99151.00;;;;4920807;28;92974;-62
2023/03/31 08:09:39;;;;;;;1.03;0.60;;;13.30;99.90;13.60;99144.00;;;;4935954;28;94272;-63
2023/03/31 08:12:05;;;;;;;0.50;0.40;;;13.40;99.90;13.70;99133.00;;;;4930457;28;95354;-63
2023/03/31 08:14:32;;;;;;;0.80;0.47;;;13.60;99.90;13.90;99127.00;;;;4918478;28;111009;-63
2023/03/31 08:16:59;;;;;;;1.02;0.50;;;13.80;99.90;14.10;99127.00;;;;4919379;28;92788;-62
2023/03/31 08:19:26;;;;;;;0.52;0.52;;;13.90;99.90;14.20;99126.00;;;;4916656;28;93256;-62
2023/03/31 08:21:52;;;;;;;1.40;0.68;;;14.10;99.90;14.30;99122.00;;;;4919602;28;96608;-63
2023/03/31 08:24:18;;;;;;;0.90;0.70;;;14.20;99.90;14.30;99116.00;;;;4918344;28;115130;-63
2023/03/31 08:26:44;;;;;;;2.90;0.63;;;14.20;99.90;14.50;99111.00;;;;4920414;28;92943;-62
2023/03/31 08:29:10;;;;;;;1.15;0.98;;;14.30;99.90;14.70;99106.00;;;;4922543;28;92115;-63
2023/03/31 08:31:36;;;;;;;0.50;0.50;;;14.50;99.90;14.80;99111.00;;;;4924861;28;116344;-62
2023/03/31 08:34:02;;;;;;;1.08;0.65;;;14.70;99.90;14.90;99108.00;;;;4916744;28;122401;-61
2023/03/31 08:36:28;;;;;;;2.58;0.85;;;14.80;99.90;15.00;99108.00;;;;4918139;28;93689;-63
2023/03/31 08:38:54;;;;;;;3.85;0.95;;;14.90;99.90;15.00;99100.00;;;;4919964;28;108009;-63
2023/03/31 08:41:57;;;;;;;1.98;0.55;;;15.00;99.90;14.90;99111.00;;;;4912875;28;93786;-63
2023/03/31 08:44:39;;;;;;;0.88;0.70;;;14.90;99.90;14.90;99095.00;;;;4915179;28;93114;-62
2023/03/31 08:47:15;;;;;;;0.90;0.63;;;14.90;99.90;14.80;99112.00;;;;4911796;28;93531;-62
2023/03/31 08:49:51;;;;;;;0.65;0.65;;;14.80;99.90;14.80;99114.00;;;;4929912;28;93148;-63
2023/03/31 08:52:35;;;;;;;1.80;0.85;;;14.80;99.90;14.70;99126.00;;;;4916993;28;93926;-60
2023/03/31 08:55:06;;;;;;;5.47;1.25;;;14.60;99.90;14.70;99102.00;;;;4948278;28;102649;-62
2023/03/31 08:57:54;;;;;;;0.35;0.32;;;14.70;99.90;14.60;99100.00;;;;4918367;28;93215;-63
2023/03/31 09:00:20;;;;;;;1.05;0.73;;;14.60;99.90;14.50;99106.00;;;;4914512;28;92902;-62
2023/03/31 09:03:27;;;;;;;1.05;0.70;;;14.50;99.90;14.30;99103.00;;;;4932019;28;94877;-62
2023/03/31 09:06:12;;;;;;;1.20;0.50;;;14.40;99.90;14.20;99095.00;;;;4875845;28;93696;-62
2023/03/31 09:08:41;;;;;;;1.42;0.50;;;14.20;99.90;14.20;99088.00;;;;4929148;28;92845;-62
2023/03/31 09:11:21;;;;;;;1.33;0.70;;;14.20;99.90;14.30;99085.00;;;;4928067;28;92741;-62
2023/03/31 09:14:05;;;;;;;0.45;0.45;;;14.20;99.90;14.50;99098.00;;;;4919488;28;93591;-62
2023/03/31 09:16:49;;;;;;;1.70;0.60;;;14.30;99.90;14.70;99077.00;;;;4949160;28;106108;-62
2023/03/31 09:19:23;;;;;;;1.83;0.77;;;14.50;99.90;14.70;99072.00;;;;4937023;28;92785;-63
2023/03/31 09:21:52;;;;;;;3.45;0.70;;;14.60;99.90;14.80;99071.00;;;;4915784;28;102420;-63
2023/03/31 09:24:30;;;;;;;1.10;0.60;;;14.70;99.90;14.80;99070.00;;;;4917073;28;94161;-62
2023/03/31 09:27:06;;;;;;;2.30;1.02;;;14.80;99.90;14.80;99068.00;;;;4962048;28;93653;-62
2023/03/31 09:30:32;;;;;;;3.20;0.95;;;14.80;99.90;14.80;99057.00;;;;4949684;28;102775;-62
2023/03/31 09:33:18;;;;;;;3.42;0.98;;;14.70;99.90;14.80;99062.00;;;;4933120;28;92981;-64
2023/03/31 09:35:45;;;;;;;0.70;0.65;;;14.70;99.90;14.80;99049.00;;;;4935590;28;93214;-63
2023/03/31 09:38:12;;;;;;;1.35;0.63;;;14.70;99.90;14.80;99039.00;;;;4934640;28;93569;-64
2023/03/31 09:40:38;;;;;;;1.48;1.02;;;14.70;99.90;14.80;99036.00;;;;4931862;28;92845;-63
2023/03/31 09:43:22;;;;;;;1.55;0.93;;;14.70;99.90;14.70;99028.00;;;;4948490;28;101159;-63
2023/03/31 09:45:49;;;;;;;7.82;0.68;;;14.70;99.90;14.80;99021.00;;;;4960912;28;94772;-64
2023/03/31 09:48:20;;;;;;;2.60;1.08;;;14.80;99.90;14.80;99015.00;;;;4936486;28;116281;-63
2023/03/31 09:50:55;;;;;;;0.93;0.50;;;14.70;99.90;14.80;99016.00;;;;4935655;28;92926;-63
2023/03/31 09:53:40;;;;;;;5.63;0.73;;;14.60;99.90;14.90;99011.00;;;;4934544;28;93119;-61
2023/03/31 09:56:07;;;;;;;0.38;0.38;;;14.80;99.90;14.90;99010.00;;;;4945916;28;95430;-63
2023/03/31 09:58:45;;;;;;;6.95;1.02;;;14.80;99.90;14.80;98996.00;;;;4918745;28;94129;-62
2023/03/31 10:01:13;;;;;;;4.10;0.95;;;14.80;99.90;14.80;99007.00;;;;4935367;28;92777;-62
2023/03/31 10:03:53;;;;;;;3.90;0.65;;;14.70;99.90;14.70;98997.00;;;;4929242;28;92821;-63
2023/03/31 10:06:20;;;;;;;3.05;0.73;;;14.70;99.90;14.60;98995.00;;;;4929537;28;94187;-62
2023/03/31 10:08:55;;;;;;;2.55;1.40;;;14.60;99.90;14.40;99006.00;;;;4911246;28;93826;-62
2023/03/31 10:11:22;;;;;;;1.08;1.00;;;14.50;99.90;14.30;98990.00;;;;4943979;28;92899;-61
2023/03/31 10:14:03;;;;;;;2.33;0.90;;;14.30;99.90;14.20;98992.00;;;;4934641;28;92360;-62
2023/03/31 10:16:28;;;;;;;1.95;0.73;;;14.30;99.90;14.10;98997.00;;;;4914760;28;102835;-62
2023/03/31 10:18:56;;;;;;;0.88;0.45;;;14.10;99.90;13.90;99007.00;;;;4935602;28;93096;-64
2023/03/31 10:21:26;;;;;;;3.75;1.00;;;14.00;99.90;13.70;99002.00;;;;4932435;28;94255;-63
2023/03/31 10:23:53;;;;;;;0.52;0.52;;;13.80;99.90;13.50;99002.00;;;;4944521;28;93124;-62
2023/03/31 10:26:23;;;;;;;0.63;0.40;;;13.50;99.90;13.30;99009.00;;;;4934564;28;93673;-63
2023/03/31 10:28:51;;;;;;;2.15;1.23;;;13.40;99.90;13.20;98999.00;;;;4947738;28;102828;-62
2023/03/31 10:31:25;;;;;;;1.07;0.70;;;13.30;99.90;13.10;98986.00;;;;4931838;28;92926;-63
2023/03/31 10:33:51;;;;;;;6.28;1.27;;;13.20;99.90;13.10;98988.00;;;;4915684;28;93121;-64
2023/03/31 10:36:25;;;;;;;0.60;0.33;;;13.10;99.90;13.00;98985.00;;;;4931770;28;101501;-63
2023/03/31 10:38:52;;;;;;;1.77;0.80;;;13.00;99.90;12.90;98979.00;;;;4935359;28;115680;-63
2023/03/31 10:41:28;;;;;;;0.87;0.60;;;13.00;99.90;12.70;98976.00;;;;4949470;28;92776;-63
2023/03/31 10:43:58;;;;;;;0.40;0.40;;;12.80;99.90;12.70;98984.00;;;;4931686;28;93035;-64
2023/03/31 10:46:48;;;;;;;2.63;0.90;;;12.70;99.90;12.60;98985.00;;;;4909049;28;98698;-65
2023/03/31 10:49:24;;;;;;;1.57;0.90;;;12.60;99.90;12.50;98972.00;;;;4933955;28;94418;-65
2023/03/31 10:51:58;;;;;;;1.20;0.80;;;12.60;99.90;12.50;98968.00;;;;4934123;28;92646;-65
2023/03/31 10:54:25;;;;;;;0.83;0.60;;;12.50;99.90;12.40;98968.00;;;;4935937;28;92695;-65
2023/03/31 10:56:55;;;;;;;3.73;0.90;;;12.50;99.90;12.40;98967.00;;;;4935435;28;93744;-66
2023/03/31 10:59:57;;;;;;;2.30;0.87;;;12.40;99.90;12.20;98959.00;;;;4949027;28;104090;-67
2023/03/31 11:02:41;;;;;;;0.60;0.57;;;12.40;99.90;12.20;98958.00;;;;4946981;28;93312;-67
2023/03/31 11:05:42;;;;;;;3.97;0.70;;;12.30;99.90;12.20;98945.00;;;;4918003;28;92497;-69
2023/03/31 11:08:33;;;;;;;0.90;0.87;;;12.30;99.90;12.10;98940.00;;;;4928706;28;93401;-68
2023/03/31 11:11:20;;;;;;;3.03;1.23;;;12.20;99.90;12.10;98935.00;;;;4916792;28;101007;-68
2023/03/31 11:14:07;;;;;;;4.20;0.87;;;12.20;99.90;12.10;98915.00;;;;4936328;28;94178;-67